Des Plaines, Illinois
Current Conditions -  °F | °C
As of 7:51 PM on Friday 28 Nov 2014 (Local Time) from KORD Reporting Station
Overcast Overcast  
Wind Chill: 25°   Ceiling: 12000
Heat Index: 33°   Visibility: 9mi
Dew Point: 28°   Wind: 10mph
Humidity: 82%   Direction: 180°S
Pressure: 29.93"   Gusts: NA
Location:  42.04°N, 87.89°W
Report Text: KORD 290151Z 18009KT 9SM FEW022 OVC120 01/M02 A2993 RMK AO2 SLP142 T00061022
Loading
Personal Weather Stations






























Interactive Weather Map New forecast layout! Learn more

10-Day Weather Forecast

Advertisements
Track Severe Weather on mobile